createdAt,value
2023-03-15T00:01:47.770Z,12.70
2023-03-15T00:04:14.488Z,22.33
2023-03-15T00:06:41.151Z,8.45
2023-03-15T00:09:08.117Z,22.00
2023-03-15T00:11:34.789Z,18.52
2023-03-15T00:14:02.390Z,11.00
2023-03-15T00:16:29.044Z,14.48
2023-03-15T00:18:56.268Z,19.30
2023-03-15T00:21:23.563Z,17.63
2023-03-15T00:23:50.651Z,13.57
2023-03-15T00:26:17.212Z,18.50
2023-03-15T00:28:44.012Z,18.30
2023-03-15T00:31:23.606Z,17.30
2023-03-15T00:33:53.708Z,19.08
2023-03-15T00:36:24.237Z,21.08
2023-03-15T00:38:53.383Z,21.38
2023-03-15T00:41:21.323Z,7.82
2023-03-15T00:43:47.862Z,15.45
2023-03-15T00:46:16.732Z,20.88
2023-03-15T00:48:43.306Z,19.15
2023-03-15T00:51:15.959Z,16.20
2023-03-15T00:53:44.399Z,12.98
2023-03-15T00:56:14.048Z,17.63
2023-03-15T00:58:41.248Z,17.88
2023-03-15T01:01:12.817Z,17.17
2023-03-15T01:03:40.807Z,16.98
2023-03-15T01:06:09.900Z,11.65
2023-03-15T01:08:36.420Z,18.60
2023-03-15T01:11:08.766Z,13.65
2023-03-15T01:13:36.038Z,18.00
2023-03-15T01:16:03.423Z,19.13
2023-03-15T01:18:31.010Z,15.57
2023-03-15T01:20:58.040Z,16.60
2023-03-15T01:23:25.025Z,15.65
2023-03-15T01:25:51.642Z,22.92
2023-03-15T01:28:18.132Z,16.85
2023-03-15T01:30:52.613Z,21.58
2023-03-15T01:33:20.366Z,19.50
2023-03-15T01:35:47.223Z,13.70
2023-03-15T01:38:13.768Z,14.55
2023-03-15T01:40:46.935Z,11.73
2023-03-15T01:43:22.555Z,18.35
2023-03-15T01:46:23.665Z,17.23
2023-03-15T01:48:57.310Z,17.42
2023-03-15T01:51:39.304Z,21.08
2023-03-15T01:56:34.892Z,25.13
2023-03-15T01:59:05.003Z,21.02
2023-03-15T02:01:35.521Z,11.68
2023-03-15T02:04:10.728Z,22.40
2023-03-15T02:06:37.509Z,11.38
2023-03-15T02:09:15.036Z,17.17
2023-03-15T02:11:42.539Z,14.45
2023-03-15T02:14:13.419Z,18.60
2023-03-15T02:16:40.021Z,16.52
2023-03-15T02:19:11.842Z,12.77
2023-03-15T02:21:44.170Z,10.35
2023-03-15T02:24:58.194Z,12.88
2023-03-15T02:27:36.098Z,13.27
2023-03-15T02:30:04.897Z,12.75
2023-03-15T02:32:31.850Z,12.30
2023-03-15T02:34:58.381Z,14.18
2023-03-15T02:37:25.359Z,19.80
2023-03-15T02:39:51.898Z,12.35
2023-03-15T02:42:19.328Z,17.40
2023-03-15T02:44:49.094Z,19.33
2023-03-15T02:47:20.367Z,10.77
2023-03-15T02:49:53.806Z,12.25
2023-03-15T02:52:21.494Z,14.23
2023-03-15T02:54:51.563Z,21.90
2023-03-15T02:57:19.738Z,16.75
2023-03-15T02:59:46.352Z,10.48
2023-03-15T03:02:13.153Z,17.55
2023-03-15T03:04:40.111Z,15.00
2023-03-15T03:07:06.657Z,16.52
2023-03-15T03:09:33.366Z,15.43
2023-03-15T03:11:59.994Z,19.83
2023-03-15T03:14:26.590Z,14.60
2023-03-15T03:16:53.199Z,18.55
2023-03-15T03:19:19.684Z,16.23
2023-03-15T03:21:46.147Z,20.27
2023-03-15T03:24:16.177Z,10.88
2023-03-15T03:26:46.122Z,20.35
2023-03-15T03:29:16.471Z,21.15
2023-03-15T03:31:44.092Z,20.08
2023-03-15T03:34:12.132Z,16.35
2023-03-15T03:36:38.604Z,14.35
2023-03-15T03:39:05.171Z,17.25
2023-03-15T03:41:31.868Z,20.55
2023-03-15T03:43:58.325Z,17.80
2023-03-15T03:46:24.891Z,15.27
2023-03-15T03:48:51.423Z,18.15
2023-03-15T03:51:17.881Z,14.82
2023-03-15T03:53:44.348Z,18.40
2023-03-15T03:56:10.850Z,18.20
2023-03-15T03:58:37.390Z,12.10
2023-03-15T04:01:04.138Z,22.98
2023-03-15T04:03:31.086Z,18.10
2023-03-15T04:05:59.157Z,14.10
2023-03-15T04:08:26.990Z,16.58
2023-03-15T04:10:55.322Z,16.20
2023-03-15T04:13:22.798Z,14.25
2023-03-15T04:15:50.575Z,17.77
2023-03-15T04:18:17.974Z,11.50
2023-03-15T04:20:46.741Z,10.60
2023-03-15T04:23:19.032Z,14.68
2023-03-15T04:25:49.710Z,15.18
2023-03-15T04:28:16.857Z,16.95
2023-03-15T04:30:44.434Z,11.93
2023-03-15T04:33:11.384Z,14.73
2023-03-15T04:35:39.225Z,15.98
2023-03-15T04:38:06.694Z,9.75
2023-03-15T04:40:35.125Z,11.77
2023-03-15T04:43:06.329Z,12.63
2023-03-15T04:45:32.993Z,9.10
2023-03-15T04:48:01.697Z,7.90
2023-03-15T04:50:29.866Z,13.57
2023-03-15T04:52:58.783Z,7.78
2023-03-15T04:55:25.555Z,8.40
2023-03-15T04:57:52.100Z,8.18
2023-03-15T05:00:18.886Z,6.50
2023-03-15T05:02:47.542Z,5.20
2023-03-15T05:05:14.013Z,5.07
2023-03-15T05:07:42.036Z,3.85
2023-03-15T05:10:09.058Z,7.75
2023-03-15T05:12:35.535Z,8.07
2023-03-15T05:15:02.046Z,7.10
2023-03-15T05:17:28.609Z,4.25
2023-03-15T05:19:55.045Z,8.27
2023-03-15T05:22:25.680Z,8.18
2023-03-15T05:24:53.800Z,5.78
2023-03-15T05:27:20.858Z,5.18
2023-03-15T05:29:47.728Z,3.65
2023-03-15T05:32:14.361Z,6.25
2023-03-15T05:34:40.902Z,8.20
2023-03-15T05:37:12.321Z,5.45
2023-03-15T05:39:38.831Z,3.30
2023-03-15T05:42:06.005Z,6.43
2023-03-15T05:44:32.474Z,3.45
2023-03-15T05:46:58.962Z,5.85
2023-03-15T05:49:25.506Z,6.55
2023-03-15T05:51:51.987Z,5.63
2023-03-15T05:54:18.475Z,5.93
2023-03-15T05:56:44.972Z,7.97
2023-03-15T05:59:11.574Z,3.13
2023-03-15T06:01:38.055Z,6.43
2023-03-15T06:04:07.476Z,4.50
2023-03-15T06:06:34.668Z,6.63
2023-03-15T06:09:01.176Z,6.97
2023-03-15T06:11:27.645Z,6.03
2023-03-15T06:13:54.188Z,4.63
2023-03-15T06:16:20.747Z,4.03
2023-03-15T06:18:47.383Z,2.60
2023-03-15T06:21:13.837Z,4.38
2023-03-15T06:23:40.575Z,6.60
2023-03-15T06:26:07.064Z,6.22
2023-03-15T06:28:33.647Z,4.28
2023-03-15T06:31:08.321Z,6.82
2023-03-15T06:33:35.334Z,5.82
2023-03-15T06:36:01.860Z,5.35
2023-03-15T06:38:28.488Z,6.43
2023-03-15T06:41:01.179Z,7.63
2023-03-15T06:43:28.554Z,9.30
2023-03-15T06:45:56.716Z,6.32
2023-03-15T06:48:23.247Z,6.78
2023-03-15T06:50:49.872Z,8.45
2023-03-15T06:53:16.584Z,4.50
2023-03-15T06:55:43.208Z,8.13
2023-03-15T06:58:09.725Z,10.48
2023-03-15T07:00:36.596Z,5.85
2023-03-15T07:03:06.326Z,10.98
2023-03-15T07:05:32.859Z,8.48
2023-03-15T07:07:59.432Z,7.03
2023-03-15T07:10:26.051Z,10.57
2023-03-15T07:12:52.621Z,9.93
2023-03-15T07:15:19.145Z,8.32
2023-03-15T07:17:45.686Z,10.07
2023-03-15T07:20:12.781Z,6.43
2023-03-15T07:22:39.232Z,8.60
2023-03-15T07:25:07.498Z,7.45
2023-03-15T07:27:33.978Z,7.43
2023-03-15T07:30:01.213Z,8.27
2023-03-15T07:32:27.911Z,9.63
2023-03-15T07:34:58.326Z,9.02
2023-03-15T07:37:24.912Z,7.82
2023-03-15T07:39:51.414Z,10.25
2023-03-15T07:42:19.794Z,6.72
2023-03-15T07:44:46.391Z,8.00
2023-03-15T07:47:13.018Z,9.35
2023-03-15T07:49:45.834Z,6.82
2023-03-15T07:52:12.439Z,12.70
2023-03-15T07:54:39.130Z,8.45
2023-03-15T07:57:05.965Z,8.93
2023-03-15T07:59:32.524Z,6.85
2023-03-15T08:02:01.600Z,7.95
2023-03-15T08:04:29.458Z,9.38
2023-03-15T08:06:56.178Z,6.13
2023-03-15T08:09:23.162Z,10.48
2023-03-15T08:11:49.694Z,9.57
2023-03-15T08:14:16.163Z,10.98
2023-03-15T08:16:42.737Z,8.07
2023-03-15T08:19:09.265Z,8.00
2023-03-15T08:21:35.789Z,10.57
2023-03-15T08:24:02.409Z,8.13
2023-03-15T08:26:28.933Z,7.53
2023-03-15T08:28:55.396Z,6.32
2023-03-15T08:31:22.035Z,10.70
2023-03-15T08:33:48.524Z,7.13
2023-03-15T08:36:15.040Z,6.80
2023-03-15T08:38:41.803Z,12.18
2023-03-15T08:41:08.301Z,9.43
2023-03-15T08:43:34.743Z,7.20
2023-03-15T08:46:01.989Z,7.78
2023-03-15T08:48:29.357Z,9.63
2023-03-15T08:50:57.403Z,10.50
2023-03-15T08:53:23.861Z,7.22
2023-03-15T08:55:50.601Z,8.82
2023-03-15T08:58:17.121Z,8.20
2023-03-15T09:00:47.116Z,6.70
2023-03-15T09:03:14.577Z,8.07
2023-03-15T09:05:41.251Z,7.65
2023-03-15T09:08:07.726Z,8.80
2023-03-15T09:10:34.449Z,7.45
2023-03-15T09:13:00.919Z,7.05
2023-03-15T09:15:27.540Z,8.68
2023-03-15T09:17:54.097Z,5.85
2023-03-15T09:20:23.004Z,7.75
2023-03-15T09:22:52.476Z,11.35
2023-03-15T09:25:19.655Z,7.10
2023-03-15T09:27:46.333Z,7.10
2023-03-15T09:30:14.024Z,9.20
2023-03-15T09:32:40.929Z,8.65
2023-03-15T09:35:10.408Z,7.43
2023-03-15T09:37:36.917Z,8.18
2023-03-15T09:40:04.708Z,9.20
2023-03-15T09:42:37.053Z,10.02
2023-03-15T09:45:13.027Z,7.72
2023-03-15T09:48:03.043Z,9.27
2023-03-15T09:50:34.146Z,9.65
2023-03-15T09:53:24.710Z,7.88
2023-03-15T09:55:51.654Z,7.85
2023-03-15T09:58:32.727Z,9.77
2023-03-15T10:01:19.311Z,7.32
2023-03-15T10:03:51.373Z,10.07
2023-03-15T10:06:26.554Z,6.55
2023-03-15T10:09:16.439Z,6.75
2023-03-15T10:11:50.695Z,6.97
2023-03-15T10:14:41.891Z,7.75
2023-03-15T10:17:13.914Z,9.10
2023-03-15T10:19:50.431Z,7.88
2023-03-15T10:22:27.984Z,10.80
2023-03-15T10:25:18.473Z,11.88
2023-03-15T10:27:53.102Z,9.65
2023-03-15T10:30:24.968Z,9.10
2023-03-15T10:33:19.397Z,8.20
2023-03-15T10:35:45.976Z,7.03
2023-03-15T10:38:20.979Z,10.23
2023-03-15T10:53:11.234Z,11.65
2023-03-15T10:55:43.445Z,11.02
2023-03-15T10:58:39.011Z,8.35
2023-03-15T11:01:08.594Z,10.13
2023-03-15T11:03:37.316Z,13.55
2023-03-15T11:06:19.978Z,23.75
2023-03-15T11:08:46.527Z,10.98
2023-03-15T11:11:13.032Z,6.18
2023-03-15T11:13:41.796Z,9.90
2023-03-15T11:16:33.716Z,9.63
2023-03-15T11:19:03.470Z,14.45
2023-03-15T11:21:34.546Z,11.27
2023-03-15T11:24:03.289Z,13.47
2023-03-15T11:26:35.808Z,9.85
2023-03-15T11:29:14.737Z,8.68
2023-03-15T11:31:41.311Z,7.07
2023-03-15T11:34:22.107Z,9.00
2023-03-15T11:37:05.317Z,6.63
2023-03-15T11:39:45.449Z,6.10
2023-03-15T11:42:19.479Z,7.47
2023-03-15T11:44:50.131Z,7.13
2023-03-15T11:47:28.206Z,7.78
2023-03-15T11:49:58.253Z,6.32
2023-03-15T11:52:29.567Z,9.52
2023-03-15T11:55:01.126Z,6.60
2023-03-15T11:57:55.169Z,6.28
2023-03-15T12:00:26.823Z,8.93
2023-03-15T12:02:59.517Z,7.00
2023-03-15T12:05:52.095Z,6.75
2023-03-15T12:08:48.397Z,9.80
2023-03-15T12:11:21.026Z,7.65
2023-03-15T12:13:53.738Z,6.70
2023-03-15T12:16:22.289Z,6.47
2023-03-15T12:18:49.880Z,9.00
2023-03-15T12:21:26.640Z,7.60
2023-03-15T12:24:01.505Z,3.53
2023-03-15T12:26:38.138Z,2.75
2023-03-15T12:29:11.912Z,2.88
2023-03-15T12:31:54.347Z,1.98
2023-03-15T12:34:49.376Z,4.45
2023-03-15T12:37:23.213Z,8.45
2023-03-15T12:40:27.047Z,1.92
2023-03-15T12:42:57.326Z,6.13
2023-03-15T12:45:37.359Z,7.97
2023-03-15T12:48:06.565Z,8.73
2023-03-15T12:50:39.169Z,7.28
2023-03-15T12:53:27.372Z,10.18
2023-03-15T12:56:02.853Z,11.70
2023-03-15T12:58:41.163Z,7.18
2023-03-15T13:01:08.289Z,8.68
2023-03-15T13:03:36.219Z,11.50
2023-03-15T13:06:21.800Z,9.82
2023-03-15T13:08:54.000Z,6.32
2023-03-15T13:11:25.743Z,8.30
2023-03-15T13:14:29.689Z,8.30
2023-03-15T13:17:17.866Z,9.20
2023-03-15T13:19:55.020Z,6.60
2023-03-15T13:23:18.756Z,10.20
2023-03-15T13:26:05.465Z,9.20
2023-03-15T13:28:38.157Z,8.13
2023-03-15T13:31:24.735Z,10.25
2023-03-15T13:34:02.306Z,4.13
2023-03-15T13:36:53.430Z,11.65
2023-03-15T13:39:24.924Z,7.80
2023-03-15T13:41:59.544Z,5.72
2023-03-15T13:44:30.317Z,7.35
2023-03-15T13:46:58.126Z,3.40
2023-03-15T13:49:29.890Z,2.75
2023-03-15T13:51:56.604Z,5.43
2023-03-15T13:54:30.502Z,8.77
2023-03-15T13:57:03.549Z,6.13
2023-03-15T13:59:43.077Z,10.85
2023-03-15T14:02:36.709Z,9.88
2023-03-15T14:05:14.184Z,6.63
2023-03-15T14:07:48.442Z,4.93
2023-03-15T14:10:33.671Z,6.93
2023-03-15T14:13:21.333Z,5.85
2023-03-15T14:15:51.394Z,5.82
2023-03-15T14:18:23.569Z,7.65
2023-03-15T14:21:20.423Z,5.97
2023-03-15T14:23:49.129Z,8.23
2023-03-15T14:26:21.522Z,4.82
2023-03-15T14:29:05.112Z,7.43
2023-03-15T14:31:39.840Z,5.60
2023-03-15T14:34:16.455Z,7.97
2023-03-15T14:36:45.410Z,5.40
2023-03-15T14:39:19.365Z,7.90
2023-03-15T14:41:46.143Z,5.68
2023-03-15T14:44:12.682Z,10.63
2023-03-15T14:46:42.414Z,6.50
2023-03-15T14:49:26.399Z,6.05
2023-03-15T14:52:04.145Z,9.80
2023-03-15T14:54:32.219Z,4.82
2023-03-15T14:56:58.714Z,5.75
2023-03-15T14:59:25.288Z,7.88
2023-03-15T15:01:55.215Z,10.63
2023-03-15T15:04:22.206Z,14.07
2023-03-15T15:06:53.037Z,4.55
2023-03-15T15:09:23.849Z,8.70
2023-03-15T15:11:51.274Z,8.38
2023-03-15T15:14:18.505Z,8.55
2023-03-15T15:16:45.910Z,7.95
2023-03-15T15:19:12.827Z,7.82
2023-03-15T15:21:40.008Z,7.22
2023-03-15T15:24:18.568Z,5.70
2023-03-15T15:26:45.422Z,8.68
2023-03-15T15:29:16.397Z,4.03
2023-03-15T15:31:44.189Z,7.97
2023-03-15T15:34:12.174Z,7.07
2023-03-15T15:36:43.915Z,9.00
2023-03-15T15:39:30.071Z,4.97
2023-03-15T15:41:56.664Z,3.97
2023-03-15T15:44:25.655Z,6.45
2023-03-15T15:46:52.446Z,3.92
2023-03-15T15:49:19.725Z,6.00
2023-03-15T15:51:51.340Z,7.20
2023-03-15T15:54:21.849Z,6.03
2023-03-15T15:56:51.344Z,9.43
2023-03-15T15:59:19.231Z,7.05
2023-03-15T16:01:59.689Z,6.97
2023-03-15T16:04:27.796Z,14.30
2023-03-15T16:06:56.876Z,8.15
2023-03-15T16:09:27.413Z,7.65
2023-03-15T16:11:53.908Z,10.45
2023-03-15T16:14:20.803Z,7.53
2023-03-15T16:16:48.480Z,10.38
2023-03-15T16:19:15.036Z,9.38
2023-03-15T16:21:47.405Z,8.60
2023-03-15T16:24:19.569Z,12.75
2023-03-15T16:26:47.738Z,6.60
2023-03-15T16:29:18.967Z,6.15
2023-03-15T16:31:46.685Z,6.07
2023-03-15T16:34:15.283Z,6.45
2023-03-15T16:36:43.933Z,10.38
2023-03-15T16:39:12.760Z,7.72
2023-03-15T16:41:40.191Z,8.70
2023-03-15T16:44:15.571Z,12.43
2023-03-15T16:46:42.228Z,7.57
2023-03-15T16:49:09.729Z,9.15
2023-03-15T16:51:39.195Z,4.78
2023-03-15T16:54:19.590Z,8.80
2023-03-15T16:56:51.257Z,4.85
2023-03-15T16:59:17.964Z,7.18
2023-03-15T17:01:45.414Z,8.20
2023-03-15T17:04:15.675Z,8.15
2023-03-15T17:06:45.359Z,4.65
2023-03-15T17:09:15.731Z,10.35
2023-03-15T17:11:45.352Z,13.98
2023-03-15T17:14:34.521Z,8.52
2023-03-15T17:17:01.079Z,9.10
2023-03-15T17:19:27.586Z,12.05
2023-03-15T17:21:54.052Z,8.35
2023-03-15T17:24:20.535Z,13.15
2023-03-15T17:26:49.211Z,8.85
2023-03-15T17:29:15.935Z,16.90
2023-03-15T17:31:44.628Z,29.20
2023-03-15T17:34:11.229Z,25.63
2023-03-15T17:36:38.031Z,11.88
2023-03-15T17:39:06.737Z,13.30
2023-03-15T17:41:36.992Z,10.75
2023-03-15T17:44:04.609Z,14.93
2023-03-15T17:46:33.321Z,12.20
2023-03-15T17:49:01.128Z,12.02
2023-03-15T17:51:30.454Z,9.30
2023-03-15T17:53:59.303Z,12.35
2023-03-15T17:56:26.715Z,13.10
2023-03-15T17:58:53.315Z,12.57
2023-03-15T18:01:23.219Z,16.08
2023-03-15T18:03:50.625Z,13.88
2023-03-15T18:06:19.387Z,15.70
2023-03-15T18:08:46.656Z,19.20
2023-03-15T18:11:22.995Z,15.82
2023-03-15T18:13:49.490Z,11.75
2023-03-15T18:16:16.077Z,13.98
2023-03-15T18:18:42.637Z,12.88
2023-03-15T18:21:14.441Z,17.02
2023-03-15T18:23:41.377Z,14.05
2023-03-15T18:26:08.917Z,17.15
2023-03-15T18:28:35.549Z,12.05
2023-03-15T18:31:02.241Z,24.00
2023-03-15T18:33:30.277Z,26.13
2023-03-15T18:35:57.261Z,34.28
2023-03-15T18:38:23.794Z,34.92
2023-03-15T18:40:51.765Z,34.45
2023-03-15T18:43:18.428Z,45.53
2023-03-15T18:45:44.991Z,39.63
2023-03-15T18:48:11.504Z,34.72
2023-03-15T18:50:37.965Z,21.77
2023-03-15T18:53:06.139Z,18.67
2023-03-15T18:55:32.867Z,16.75
2023-03-15T18:57:59.374Z,16.30
2023-03-15T19:00:29.508Z,20.55
2023-03-15T19:02:58.765Z,21.08
2023-03-15T19:05:26.313Z,16.77
2023-03-15T19:07:52.882Z,15.63
2023-03-15T19:10:20.886Z,15.82
2023-03-15T19:12:48.646Z,16.17
2023-03-15T19:15:17.574Z,15.35
2023-03-15T19:17:46.796Z,16.33
2023-03-15T19:20:17.112Z,17.55
2023-03-15T19:22:45.122Z,18.13
2023-03-15T19:25:13.885Z,14.05
2023-03-15T19:27:42.076Z,14.32
2023-03-15T19:30:16.918Z,18.67
2023-03-15T19:32:45.865Z,15.05
2023-03-15T19:35:12.597Z,15.10
2023-03-15T19:37:39.181Z,16.17
2023-03-15T19:40:09.361Z,18.00
2023-03-15T19:42:35.979Z,17.02
2023-03-15T19:45:03.044Z,16.55
2023-03-15T19:47:29.537Z,18.73
2023-03-15T19:50:02.694Z,10.82
2023-03-15T19:52:29.424Z,12.60
2023-03-15T19:54:56.478Z,12.52
2023-03-15T19:57:22.983Z,12.73
2023-03-15T19:59:49.679Z,15.27
2023-03-15T20:02:16.161Z,13.00
2023-03-15T20:04:42.812Z,8.52
2023-03-15T20:07:11.115Z,14.23
2023-03-15T20:09:39.601Z,10.60
2023-03-15T20:12:07.113Z,14.43
2023-03-15T20:14:34.107Z,14.50
2023-03-15T20:17:00.985Z,10.40
2023-03-15T20:19:27.809Z,10.18
2023-03-15T20:21:54.268Z,13.63
2023-03-15T20:24:20.736Z,9.57
2023-03-15T20:26:47.181Z,10.45
2023-03-15T20:29:13.769Z,10.05
2023-03-15T20:31:40.259Z,12.82
2023-03-15T20:34:08.999Z,7.30
2023-03-15T20:36:36.152Z,9.68
2023-03-15T20:39:04.680Z,13.05
2023-03-15T20:41:34.067Z,9.55
2023-03-15T20:44:01.285Z,8.27
2023-03-15T20:46:29.512Z,10.77
2023-03-15T20:48:56.118Z,8.30
2023-03-15T20:51:22.659Z,10.55
2023-03-15T20:53:49.450Z,11.98
2023-03-15T20:56:20.531Z,12.55
2023-03-15T20:58:47.528Z,12.17
2023-03-15T21:01:16.430Z,11.73
2023-03-15T21:03:44.725Z,10.65
2023-03-15T21:06:13.153Z,12.07
2023-03-15T21:08:44.072Z,11.10
2023-03-15T21:11:10.566Z,8.52
2023-03-15T21:13:37.256Z,9.93
2023-03-15T21:16:04.708Z,10.57
2023-03-15T21:18:32.957Z,7.40
2023-03-15T21:21:08.886Z,10.93
2023-03-15T21:23:35.701Z,8.85
2023-03-15T21:26:05.050Z,13.80
2023-03-15T21:28:32.272Z,12.10
2023-03-15T21:31:02.266Z,13.90
2023-03-15T21:33:30.099Z,7.32
2023-03-15T21:35:59.308Z,10.60
2023-03-15T21:38:31.454Z,9.77
2023-03-15T21:41:02.555Z,9.77
2023-03-15T21:43:31.843Z,10.47
2023-03-15T21:46:04.155Z,8.30
2023-03-15T21:48:32.194Z,10.40
2023-03-15T21:51:02.171Z,11.73
2023-03-15T21:53:31.125Z,15.65
2023-03-15T21:55:58.758Z,12.02
2023-03-15T21:58:26.118Z,13.80
2023-03-15T22:01:01.255Z,12.93
2023-03-15T22:03:28.502Z,15.07
2023-03-15T22:05:55.024Z,9.43
2023-03-15T22:08:21.480Z,9.40
2023-03-15T22:10:52.206Z,12.20
2023-03-15T22:13:21.920Z,15.45
2023-03-15T22:15:48.425Z,10.00
2023-03-15T22:18:17.605Z,14.27
2023-03-15T22:20:47.364Z,9.93
2023-03-15T22:23:13.869Z,9.13
2023-03-15T22:25:40.474Z,11.40
2023-03-15T22:28:11.510Z,13.15
2023-03-15T22:30:42.866Z,14.80
2023-03-15T22:33:12.864Z,18.13
2023-03-15T22:35:42.168Z,13.27
2023-03-15T22:38:12.493Z,12.27
2023-03-15T22:40:40.724Z,12.02
2023-03-15T22:43:09.090Z,9.93
2023-03-15T22:45:36.565Z,14.48
2023-03-15T22:48:06.551Z,10.38
2023-03-15T22:50:33.106Z,8.30
2023-03-15T22:53:04.346Z,9.40
2023-03-15T22:55:30.784Z,9.57
2023-03-15T22:57:57.281Z,10.25
2023-03-15T23:00:24.817Z,11.80
2023-03-15T23:02:56.697Z,8.15
2023-03-15T23:05:26.922Z,10.13
2023-03-15T23:07:53.404Z,10.30
2023-03-15T23:10:20.217Z,10.63
2023-03-15T23:12:49.767Z,8.70
2023-03-15T23:15:16.269Z,4.60
2023-03-15T23:17:46.613Z,12.00
2023-03-15T23:20:15.363Z,9.57
2023-03-15T23:22:45.519Z,8.63
2023-03-15T23:25:22.544Z,6.35
2023-03-15T23:27:53.434Z,9.38
2023-03-15T23:30:20.046Z,9.55
2023-03-15T23:32:48.759Z,10.13
2023-03-15T23:35:15.497Z,6.82
2023-03-15T23:37:45.011Z,7.28
2023-03-15T23:40:15.092Z,8.65
2023-03-15T23:42:43.428Z,5.18
2023-03-15T23:45:17.743Z,11.02
2023-03-15T23:47:47.107Z,8.98
2023-03-15T23:50:16.091Z,8.73
2023-03-15T23:52:48.035Z,7.85
2023-03-15T23:57:41.431Z,5.40
